Time;durP1;ratioP1;P1;durP2;ratioP2;P2;SDS_P1;SDS_P2;PMS_P1;PMS_P2;Temp;Humidity;BMP_temperature;BMP_pressure;BME280_temperature;BME280_humidity;BME280_pressure;Samples;Min_cycle;Max_cycle;Signal;HPM_P1;HPM_P2
2023/03/31 00:02:21;;;;;;;7.60;4.78;;;16.60;53.00;;;;;;4995620;28;20039;-63
2023/03/31 00:04:58;;;;;;;5.00;3.95;;;16.60;53.00;;;;;;4995536;28;20026;-60
2023/03/31 00:07:24;;;;;;;5.03;3.92;;;16.70;53.20;;;;;;4993851;28;20027;-60
2023/03/31 00:09:53;;;;;;;4.82;3.88;;;16.60;53.20;;;;;;4995041;28;20029;-62
2023/03/31 00:12:20;;;;;;;5.05;3.40;;;16.60;53.50;;;;;;4995870;28;20031;-62
2023/03/31 00:14:46;;;;;;;4.13;3.72;;;16.70;52.60;;;;;;4993823;28;20470;-63
2023/03/31 00:17:12;;;;;;;5.18;4.30;;;16.70;53.40;;;;;;4993712;28;20101;-63
2023/03/31 00:19:39;;;;;;;5.78;4.25;;;16.60;55.70;;;;;;4994282;28;20080;-61
2023/03/31 00:22:05;;;;;;;7.63;4.45;;;16.30;56.20;;;;;;4995128;28;20034;-62
2023/03/31 00:24:31;;;;;;;6.65;5.30;;;16.20;55.20;;;;;;4995472;28;20033;-62
2023/03/31 00:27:01;;;;;;;9.95;6.75;;;16.10;55.60;;;;;;4993446;28;20026;-63
2023/03/31 00:29:27;;;;;;;5.28;4.75;;;16.00;56.20;;;;;;4993139;28;20477;-64
2023/03/31 00:31:54;;;;;;;8.05;5.60;;;15.80;58.40;;;;;;4993581;28;20098;-63
2023/03/31 00:34:20;;;;;;;6.72;4.68;;;15.70;58.30;;;;;;4994812;28;20057;-64
2023/03/31 00:36:46;;;;;;;6.38;4.82;;;15.60;59.20;;;;;;4995420;28;20026;-62
2023/03/31 00:39:14;;;;;;;7.68;6.78;;;15.50;57.00;;;;;;4995353;28;20437;-61
2023/03/31 00:41:40;;;;;;;9.35;6.72;;;15.60;56.60;;;;;;4995153;28;20500;-62
2023/03/31 00:44:24;;;;;;;6.50;5.80;;;15.80;56.40;;;;;;4994993;28;20116;-60
2023/03/31 00:47:00;;;;;;;7.93;6.20;;;15.80;56.90;;;;;;4994942;28;20106;-63
2023/03/31 00:49:33;;;;;;;6.40;5.57;;;15.80;56.40;;;;;;4994904;28;20041;-59
2023/03/31 00:52:21;;;;;;;5.53;4.55;;;15.90;55.40;;;;;;4994684;28;20037;-63
2023/03/31 00:54:52;;;;;;;5.82;4.50;;;16.00;54.20;;;;;;4994999;28;20031;-61
2023/03/31 00:57:18;;;;;;;4.90;3.50;;;16.10;54.60;;;;;;4994607;28;20034;-61
2023/03/31 00:59:50;;;;;;;6.40;5.25;;;16.00;56.00;;;;;;4994456;28;20030;-62
2023/03/31 01:02:19;;;;;;;8.75;6.90;;;15.90;55.80;;;;;;4994536;28;20050;-61
2023/03/31 01:04:53;;;;;;;6.32;5.00;;;15.80;54.30;;;;;;4994872;28;20117;-61
2023/03/31 01:07:24;;;;;;;6.00;4.38;;;15.90;54.40;;;;;;4994565;28;20033;-62
2023/03/31 01:09:55;;;;;;;4.72;3.95;;;16.00;55.60;;;;;;4994435;28;20025;-63
2023/03/31 01:12:22;;;;;;;5.97;3.88;;;16.00;54.90;;;;;;4994626;28;20050;-61
2023/03/31 01:14:50;;;;;;;4.75;4.10;;;15.90;56.40;;;;;;4993842;28;20023;-63
2023/03/31 01:17:20;;;;;;;5.38;4.18;;;15.80;57.10;;;;;;4992676;28;20430;-61
2023/03/31 01:20:12;;;;;;;6.57;4.57;;;15.70;57.90;;;;;;4992509;28;20049;-61
2023/03/31 01:22:44;;;;;;;6.03;4.30;;;15.50;58.00;;;;;;4994147;28;20036;-61
2023/03/31 01:25:29;;;;;;;5.45;3.22;;;15.40;56.90;;;;;;4994324;28;20026;-59
2023/03/31 01:28:25;;;;;;;4.57;2.88;;;15.40;58.00;;;;;;4994050;28;20038;-61
2023/03/31 01:31:05;;;;;;;5.30;3.20;;;15.50;57.20;;;;;;4994148;28;20485;-62
2023/03/31 01:33:30;;;;;;;5.20;3.35;;;15.40;58.90;;;;;;4993533;28;20023;-62
2023/03/31 01:36:21;;;;;;;7.82;3.55;;;15.40;60.20;;;;;;4994079;28;20033;-63
2023/03/31 01:39:07;;;;;;;6.00;3.58;;;15.20;60.50;;;;;;4994159;28;20544;-62
2023/03/31 01:41:53;;;;;;;4.25;3.40;;;15.10;61.60;;;;;;4993819;28;20022;-60
2023/03/31 01:44:51;;;;;;;7.10;4.32;;;15.10;62.60;;;;;;4994074;28;20089;-60
2023/03/31 01:47:43;;;;;;;11.70;4.93;;;15.20;62.10;;;;;;4971875;28;20039;-63
2023/03/31 01:50:29;;;;;;;6.70;4.70;;;15.00;62.70;;;;;;4993989;28;20109;-63
2023/03/31 01:52:55;;;;;;;5.68;3.65;;;14.80;62.40;;;;;;4992505;28;20037;-62
2023/03/31 01:55:45;;;;;;;7.78;4.13;;;14.70;62.30;;;;;;4992999;28;20022;-62
2023/03/31 01:58:20;;;;;;;8.73;4.28;;;14.60;63.50;;;;;;4993819;28;20077;-60
2023/03/31 02:01:00;;;;;;;5.35;3.70;;;14.40;62.20;;;;;;4994012;28;20023;-62
2023/03/31 02:03:33;;;;;;;5.35;3.28;;;14.40;61.90;;;;;;4993588;28;20042;-62
2023/03/31 02:06:23;;;;;;;7.75;3.80;;;14.60;62.00;;;;;;4992254;28;20029;-61
2023/03/31 02:08:54;;;;;;;5.43;3.50;;;14.80;61.60;;;;;;4991618;28;20033;-63
2023/03/31 02:11:21;;;;;;;5.57;3.72;;;14.60;62.20;;;;;;4993206;28;20472;-61
2023/03/31 02:13:48;;;;;;;4.93;3.65;;;14.60;62.80;;;;;;4993817;28;20362;-61
2023/03/31 02:16:23;;;;;;;5.97;4.28;;;14.70;63.40;;;;;;4992276;28;20018;-61
2023/03/31 02:18:52;;;;;;;8.57;4.35;;;14.80;62.60;;;;;;4992857;28;20031;-63
2023/03/31 02:21:21;;;;;;;5.40;4.20;;;14.80;63.60;;;;;;4993879;28;20082;-61
2023/03/31 02:23:50;;;;;;;5.18;3.78;;;14.70;63.20;;;;;;4993879;28;20445;-61
2023/03/31 02:26:22;;;;;;;8.02;4.85;;;14.80;62.20;;;;;;4993742;28;20101;-62
2023/03/31 02:28:48;;;;;;;9.60;5.20;;;14.90;61.50;;;;;;4993533;28;20019;-62
2023/03/31 02:31:35;;;;;;;7.50;5.05;;;14.80;63.20;;;;;;4992767;28;20392;-60
2023/03/31 02:34:01;;;;;;;5.15;3.95;;;14.80;63.30;;;;;;4992784;28;20101;-61
2023/03/31 02:36:28;;;;;;;5.00;3.33;;;14.60;63.60;;;;;;4993835;28;20022;-60
2023/03/31 02:39:02;;;;;;;5.40;4.30;;;14.80;63.10;;;;;;4993363;28;20469;-61
2023/03/31 02:41:28;;;;;;;6.97;4.97;;;14.80;64.30;;;;;;4993452;28;20014;-62
2023/03/31 02:43:54;;;;;;;6.68;4.55;;;14.60;65.40;;;;;;4993430;28;20042;-60
2023/03/31 02:46:20;;;;;;;5.40;3.50;;;14.50;65.60;;;;;;4997180;28;20508;-62
2023/03/31 02:48:50;;;;;;;5.68;3.65;;;14.30;64.90;;;;;;4996527;28;20097;-63
2023/03/31 02:51:22;;;;;;;5.45;3.65;;;14.40;65.00;;;;;;4995233;28;20022;-62
2023/03/31 02:53:51;;;;;;;7.53;4.82;;;14.60;65.50;;;;;;4994884;28;20026;-60
2023/03/31 02:56:35;;;;;;;4.97;4.18;;;14.50;66.80;;;;;;4994976;28;20029;-61
2023/03/31 02:59:45;;;;;;;5.45;3.40;;;14.50;66.50;;;;;;4996001;28;20027;-63
2023/03/31 03:02:16;;;;;;;6.07;3.90;;;14.50;65.50;;;;;;4986559;28;20506;-60
2023/03/31 03:05:33;;;;;;;8.48;5.20;;;14.40;68.10;;;;;;4996800;28;20478;-61
2023/03/31 03:08:42;;;;;;;19.40;15.95;;;14.20;67.70;;;;;;4955796;29;20072;-61
2023/03/31 03:11:31;;;;;;;19.75;16.38;;;14.10;66.50;;;;;;4996766;28;20097;-60
2023/03/31 03:14:33;;;;;;;28.90;25.85;;;14.00;68.80;;;;;;4996634;28;20026;-61
2023/03/31 03:17:02;;;;;;;20.17;18.08;;;13.70;69.20;;;;;;4996959;28;20023;-61
2023/03/31 03:19:28;;;;;;;14.40;12.90;;;13.70;69.10;;;;;;4996574;28;20026;-63
2023/03/31 03:21:54;;;;;;;14.20;10.02;;;13.70;67.20;;;;;;4996467;28;20029;-62
2023/03/31 03:24:21;;;;;;;10.70;8.10;;;13.70;69.40;;;;;;4996304;28;20473;-60
2023/03/31 03:26:47;;;;;;;10.35;8.20;;;13.50;70.90;;;;;;4996416;28;20023;-62
2023/03/31 03:29:13;;;;;;;12.93;8.13;;;13.40;71.20;;;;;;4996745;28;20034;-63
2023/03/31 03:31:40;;;;;;;9.93;7.75;;;13.50;70.20;;;;;;4996676;28;20081;-61
2023/03/31 03:34:08;;;;;;;10.23;8.10;;;13.30;70.70;;;;;;4996441;28;20026;-62
2023/03/31 03:36:35;;;;;;;12.98;9.60;;;13.30;70.30;;;;;;4996596;28;20357;-60
2023/03/31 03:39:01;;;;;;;10.73;8.07;;;13.40;69.00;;;;;;4996149;28;20488;-63
2023/03/31 03:41:26;;;;;;;13.75;8.45;;;13.40;69.90;;;;;;4996171;28;20104;-62
2023/03/31 03:43:52;;;;;;;21.80;14.32;;;13.30;70.40;;;;;;4996259;28;20222;-61
2023/03/31 03:46:17;;;;;;;23.23;15.25;;;13.30;70.20;;;;;;4995919;28;20080;-60
2023/03/31 03:48:43;;;;;;;17.23;13.20;;;13.30;70.20;;;;;;4996050;28;20030;-62
2023/03/31 03:51:09;;;;;;;15.68;11.80;;;13.30;70.10;;;;;;4995994;28;20030;-62
2023/03/31 03:53:34;;;;;;;16.13;11.98;;;13.50;70.50;;;;;;4995288;28;20081;-62
2023/03/31 03:56:01;;;;;;;12.82;9.95;;;13.70;70.00;;;;;;4994891;28;20046;-61
2023/03/31 03:58:27;;;;;;;18.05;10.68;;;13.80;70.40;;;;;;4996156;28;20037;-63
2023/03/31 04:00:53;;;;;;;15.30;9.48;;;13.70;71.30;;;;;;4995875;28;20023;-60
2023/03/31 04:03:18;;;;;;;21.83;15.52;;;13.50;71.80;;;;;;4995653;28;20051;-62
2023/03/31 04:05:48;;;;;;;26.77;20.83;;;13.50;71.40;;;;;;4995855;28;20027;-62
2023/03/31 04:08:14;;;;;;;25.15;21.25;;;13.50;71.40;;;;;;4995569;28;20069;-62
2023/03/31 04:10:47;;;;;;;23.90;19.80;;;13.40;71.60;;;;;;4995966;28;20034;-62
2023/03/31 04:13:17;;;;;;;;;;;13.50;72.60;;;;;;4996306;28;20363;-62
2023/03/31 04:15:43;;;;;;;23.25;19.13;;;13.40;73.20;;;;;;4995900;28;19906;-62
2023/03/31 04:18:21;;;;;;;22.70;18.58;;;13.40;73.30;;;;;;4995316;28;20026;-61
2023/03/31 04:21:02;;;;;;;24.92;21.10;;;13.50;72.70;;;;;;4995563;28;20041;-62
2023/03/31 04:23:32;;;;;;;33.72;28.73;;;13.50;73.50;;;;;;4995202;28;20040;-60
2023/03/31 04:25:59;;;;;;;28.50;25.40;;;13.50;73.40;;;;;;4995450;28;20054;-60
2023/03/31 04:28:25;;;;;;;25.08;21.38;;;13.40;74.90;;;;;;4994831;28;20065;-62
2023/03/31 04:30:57;;;;;;;19.67;17.58;;;13.40;75.70;;;;;;4993312;28;20023;-62
2023/03/31 04:33:23;;;;;;;20.45;17.00;;;13.40;75.50;;;;;;4993747;28;20528;-61
2023/03/31 04:35:49;;;;;;;20.02;17.35;;;13.50;75.20;;;;;;4993257;28;20022;-62
2023/03/31 04:38:19;;;;;;;23.98;17.10;;;13.50;75.20;;;;;;4993110;28;20057;-62
2023/03/31 04:40:47;;;;;;;26.67;17.15;;;13.40;76.80;;;;;;4993413;28;20114;-61
2023/03/31 04:43:13;;;;;;;20.65;14.80;;;13.30;78.30;;;;;;4993365;28;20030;-63
2023/03/31 04:45:39;;;;;;;15.95;12.55;;;13.20;78.70;;;;;;4993845;28;20033;-63
2023/03/31 04:48:05;;;;;;;15.18;11.00;;;13.30;79.90;;;;;;4993926;28;20022;-63
2023/03/31 04:50:31;;;;;;;13.15;9.10;;;13.50;77.80;;;;;;4994711;28;20409;-63
2023/03/31 04:52:57;;;;;;;13.02;10.32;;;13.70;76.40;;;;;;4994782;28;20036;-60
2023/03/31 04:55:23;;;;;;;13.15;10.80;;;13.70;76.60;;;;;;4994500;28;20026;-61
2023/03/31 04:57:48;;;;;;;18.25;13.05;;;13.70;76.50;;;;;;4995016;28;20469;-61
2023/03/31 05:00:15;;;;;;;22.15;15.07;;;13.70;77.50;;;;;;4993839;28;20035;-61
2023/03/31 05:02:40;;;;;;;42.72;28.75;;;13.70;77.30;;;;;;4993617;28;20513;-63
2023/03/31 05:05:06;;;;;;;55.15;37.80;;;13.70;78.30;;;;;;4991020;28;20033;-63
2023/03/31 05:07:32;;;;;;;44.40;32.80;;;13.60;78.30;;;;;;4983608;28;20022;-62
2023/03/31 05:09:58;;;;;;;46.47;31.67;;;13.70;78.90;;;;;;4982722;28;20030;-61
2023/03/31 05:12:24;;;;;;;44.78;30.48;;;13.80;78.50;;;;;;4983739;28;20465;-62
2023/03/31 05:14:50;;;;;;;42.75;27.67;;;13.90;77.50;;;;;;4984138;28;20081;-61
2023/03/31 05:17:16;;;;;;;36.25;24.50;;;13.80;78.00;;;;;;4982137;28;20023;-63
2023/03/31 05:19:43;;;;;;;32.17;21.75;;;13.80;79.60;;;;;;4983071;28;20061;-62
2023/03/31 05:22:08;;;;;;;38.67;23.33;;;13.80;79.60;;;;;;4983766;28;20071;-63
2023/03/31 05:24:34;;;;;;;33.53;25.80;;;13.90;79.10;;;;;;4981835;28;20035;-62
2023/03/31 05:27:00;;;;;;;26.77;19.88;;;13.90;81.10;;;;;;4983427;28;20073;-63
2023/03/31 05:29:26;;;;;;;21.60;14.80;;;14.10;78.00;;;;;;4983509;28;20031;-61
2023/03/31 05:31:52;;;;;;;19.52;13.93;;;14.30;75.80;;;;;;4981879;28;20354;-60
2023/03/31 05:35:04;;;;;;;13.43;10.85;;;14.40;74.70;;;;;;4983560;28;20028;-64
2023/03/31 05:37:30;;;;;;;15.27;9.70;;;14.50;73.30;;;;;;4982940;28;20047;-60
2023/03/31 05:39:56;;;;;;;11.98;8.57;;;14.60;72.70;;;;;;4984964;28;20031;-60
2023/03/31 05:42:22;;;;;;;11.32;7.68;;;14.70;72.80;;;;;;4983295;28;20066;-63
2023/03/31 05:44:48;;;;;;;9.93;7.57;;;14.80;72.50;;;;;;4982229;28;20026;-63
2023/03/31 05:47:14;;;;;;;9.32;7.55;;;14.90;71.60;;;;;;4983797;28;20018;-61
2023/03/31 05:49:40;;;;;;;9.38;6.40;;;15.00;71.20;;;;;;4981216;28;20026;-61
2023/03/31 05:52:07;;;;;;;8.13;6.78;;;15.10;71.10;;;;;;4981150;28;20662;-62
2023/03/31 05:54:33;;;;;;;9.55;6.00;;;15.10;70.60;;;;;;4988676;28;20511;-63
2023/03/31 05:56:59;;;;;;;10.02;5.43;;;15.20;69.60;;;;;;4991698;28;20022;-62
2023/03/31 05:59:25;;;;;;;10.80;6.10;;;15.20;69.20;;;;;;4991804;28;20023;-61
2023/03/31 06:01:50;;;;;;;7.65;5.60;;;15.40;70.40;;;;;;4991311;28;20050;-63
2023/03/31 06:04:16;;;;;;;8.55;5.78;;;15.60;69.20;;;;;;4991257;28;20126;-61
2023/03/31 06:06:43;;;;;;;7.95;5.97;;;16.30;66.30;;;;;;4989423;28;20025;-63
2023/03/31 06:09:13;;;;;;;8.15;7.15;;;16.80;63.20;;;;;;4991430;28;20023;-63
2023/03/31 06:11:38;;;;;;;11.48;7.03;;;16.60;64.30;;;;;;4989508;28;20029;-61
2023/03/31 06:14:04;;;;;;;8.93;6.70;;;16.60;64.30;;;;;;4990841;28;20035;-64
2023/03/31 06:16:30;;;;;;;10.48;8.05;;;16.50;64.70;;;;;;4990925;28;20141;-62
2023/03/31 06:18:56;;;;;;;9.35;7.05;;;16.70;64.10;;;;;;4990111;28;20022;-63
2023/03/31 06:21:22;;;;;;;8.30;7.38;;;16.80;63.30;;;;;;4994970;28;20357;-61
2023/03/31 06:23:48;;;;;;;8.88;7.75;;;17.60;62.50;;;;;;4984454;28;20034;-64
2023/03/31 06:26:16;;;;;;;8.45;7.22;;;18.90;59.30;;;;;;4980213;28;20026;-65
2023/03/31 06:28:43;;;;;;;8.63;6.93;;;19.70;56.20;;;;;;4986382;28;20023;-66
2023/03/31 06:31:16;;;;;;;7.50;6.57;;;20.30;54.30;;;;;;4987645;28;20019;-61
2023/03/31 06:33:42;;;;;;;8.02;6.63;;;22.10;51.90;;;;;;4985427;28;20030;-65
2023/03/31 06:36:11;;;;;;;7.07;5.43;;;22.00;49.30;;;;;;4987356;28;20497;-65
2023/03/31 06:38:37;;;;;;;5.90;5.18;;;22.50;50.20;;;;;;4988168;28;20022;-63
2023/03/31 06:41:05;;;;;;;6.20;5.60;;;23.70;47.60;;;;;;4995728;28;20033;-68
2023/03/31 06:43:31;;;;;;;6.85;5.35;;;23.70;46.40;;;;;;4995066;28;20044;-66
2023/03/31 06:45:57;;;;;;;7.25;6.55;;;22.70;45.70;;;;;;4994419;28;20453;-65
2023/03/31 06:48:24;;;;;;;8.05;6.38;;;21.60;47.00;;;;;;4994481;28;20023;-66
2023/03/31 06:50:50;;;;;;;11.05;7.20;;;20.80;48.40;;;;;;4994198;28;20014;-62
2023/03/31 06:53:16;;;;;;;7.32;6.40;;;20.30;50.00;;;;;;4995084;28;20117;-66
2023/03/31 06:55:41;;;;;;;8.10;6.97;;;20.10;50.90;;;;;;4994715;28;20122;-63
2023/03/31 06:58:07;;;;;;;7.28;6.57;;;19.80;53.80;;;;;;4994560;28;20101;-64
2023/03/31 07:00:33;;;;;;;7.65;6.78;;;19.60;51.80;;;;;;4992840;28;20085;-71
2023/03/31 07:03:00;;;;;;;8.48;7.00;;;19.70;52.90;;;;;;4987802;28;20669;-63
2023/03/31 07:05:29;;;;;;;7.15;6.45;;;19.90;53.10;;;;;;4991553;28;20026;-67
2023/03/31 07:07:56;;;;;;;7.78;6.93;;;20.00;52.40;;;;;;4991710;28;20026;-64
2023/03/31 07:10:23;;;;;;;8.07;7.28;;;19.90;53.00;;;;;;4992603;28;20469;-60
2023/03/31 07:12:49;;;;;;;7.13;6.43;;;19.70;52.50;;;;;;4991383;28;20026;-61
2023/03/31 07:15:15;;;;;;;6.75;6.07;;;19.50;51.60;;;;;;4991232;28;20026;-64
2023/03/31 07:17:42;;;;;;;7.50;6.78;;;19.40;51.80;;;;;;4991630;28;20113;-61
2023/03/31 07:20:14;;;;;;;7.00;6.30;;;19.50;52.90;;;;;;4993177;28;20030;-62
2023/03/31 07:22:45;;;;;;;7.70;6.20;;;20.50;52.20;;;;;;4992439;28;20449;-63
2023/03/31 07:25:14;;;;;;;7.10;6.40;;;21.30;49.80;;;;;;4984758;28;20109;-63
2023/03/31 07:27:40;;;;;;;6.32;5.72;;;21.50;46.40;;;;;;4993700;28;20081;-65
2023/03/31 07:30:08;;;;;;;6.22;5.63;;;21.10;46.10;;;;;;4994666;28;20377;-63
2023/03/31 07:32:38;;;;;;;6.10;5.45;;;20.70;47.30;;;;;;4993698;28;20027;-65
2023/03/31 07:35:05;;;;;;;5.75;4.78;;;20.50;48.00;;;;;;4994210;28;20160;-63
2023/03/31 07:37:44;;;;;;;4.80;4.40;;;20.80;48.60;;;;;;4993559;28;20030;-63
2023/03/31 07:40:14;;;;;;;4.78;4.35;;;21.10;47.50;;;;;;4993828;28;20022;-65
2023/03/31 07:42:41;;;;;;;3.70;3.40;;;22.60;46.20;;;;;;4993427;28;20113;-62
2023/03/31 07:45:08;;;;;;;4.10;3.63;;;23.00;43.80;;;;;;4995231;28;20046;-63
2023/03/31 07:47:34;;;;;;;4.38;3.63;;;22.80;44.10;;;;;;4995530;28;20113;-62
2023/03/31 07:50:00;;;;;;;3.53;3.22;;;22.40;44.20;;;;;;4994599;28;20015;-61
2023/03/31 07:52:25;;;;;;;4.18;3.05;;;22.00;43.80;;;;;;4993219;28;20041;-61
2023/03/31 07:54:51;;;;;;;3.22;2.80;;;22.40;44.20;;;;;;4989502;28;20076;-62
2023/03/31 07:57:18;;;;;;;3.58;2.85;;;22.80;44.20;;;;;;4991348;28;20046;-60
2023/03/31 07:59:44;;;;;;;4.00;3.60;;;22.50;43.60;;;;;;4990627;28;20393;-60
2023/03/31 08:02:15;;;;;;;4.22;3.30;;;22.50;45.00;;;;;;4992233;28;20049;-59
2023/03/31 08:04:41;;;;;;;5.70;5.10;;;23.00;44.00;;;;;;4989681;28;20401;-62
2023/03/31 08:07:11;;;;;;;4.03;3.63;;;24.10;42.70;;;;;;4983996;28;20026;-61
2023/03/31 08:09:37;;;;;;;3.78;3.22;;;25.80;41.00;;;;;;4992319;28;20034;-61
2023/03/31 08:12:04;;;;;;;4.70;3.20;;;27.30;39.70;;;;;;4993653;28;20033;-62
2023/03/31 08:14:30;;;;;;;3.40;2.92;;;27.20;39.00;;;;;;4992554;28;20031;-61
2023/03/31 08:16:56;;;;;;;2.30;1.75;;;28.20;37.20;;;;;;4988473;28;20032;-60
2023/03/31 08:19:23;;;;;;;3.80;1.58;;;28.80;36.90;;;;;;4990680;28;20045;-64
2023/03/31 08:21:51;;;;;;;3.35;1.50;;;29.30;35.30;;;;;;4985602;28;20503;-64
2023/03/31 08:24:17;;;;;;;1.90;1.42;;;30.10;35.90;;;;;;4984892;28;20039;-65
2023/03/31 08:26:43;;;;;;;1.88;1.50;;;30.90;35.00;;;;;;4984396;28;20081;-61
2023/03/31 08:29:09;;;;;;;1.83;1.20;;;30.90;32.00;;;;;;4993145;28;20026;-64
2023/03/31 08:31:35;;;;;;;1.88;1.15;;;31.40;31.90;;;;;;4992016;28;20036;-68
2023/03/31 08:34:01;;;;;;;1.95;1.17;;;31.70;32.60;;;;;;4990512;28;20101;-63
2023/03/31 08:36:28;;;;;;;4.10;1.80;;;31.70;31.80;;;;;;4993068;28;20565;-64
2023/03/31 08:38:55;;;;;;;2.50;1.80;;;32.00;32.00;;;;;;4989735;28;20030;-63
2023/03/31 08:41:27;;;;;;;2.33;2.13;;;31.60;31.40;;;;;;4991325;28;20121;-65
2023/03/31 08:43:55;;;;;;;2.03;1.50;;;31.30;31.80;;;;;;4986843;28;20061;-64
2023/03/31 08:46:22;;;;;;;1.90;0.90;;;31.90;29.70;;;;;;4984956;28;20029;-67
2023/03/31 08:48:53;;;;;;;2.92;0.80;;;31.40;30.40;;;;;;4981789;28;20382;-65
2023/03/31 08:51:37;;;;;;;1.13;0.82;;;30.80;31.10;;;;;;4982802;28;20022;-63
2023/03/31 08:54:09;;;;;;;1.05;0.65;;;30.00;30.20;;;;;;4986631;28;20042;-62
2023/03/31 08:56:39;;;;;;;2.03;0.80;;;29.40;31.10;;;;;;4988190;28;20041;-61
2023/03/31 08:59:06;;;;;;;2.83;0.90;;;28.60;31.10;;;;;;4986754;28;20038;-63
2023/03/31 09:01:49;;;;;;;1.40;0.80;;;28.40;32.00;;;;;;4985958;28;20030;-63
2023/03/31 09:04:32;;;;;;;2.28;0.90;;;28.20;31.40;;;;;;4987921;28;20045;-64
2023/03/31 09:07:27;;;;;;;0.98;0.80;;;28.20;32.40;;;;;;4983757;28;20390;-62
2023/03/31 09:10:11;;;;;;;1.20;0.70;;;27.70;32.90;;;;;;4984071;28;20034;-61
2023/03/31 09:13:04;;;;;;;2.72;0.90;;;27.40;32.80;;;;;;4991560;28;20133;-64
2023/03/31 09:15:42;;;;;;;2.95;0.80;;;26.70;34.00;;;;;;4992069;28;20022;-63
2023/03/31 09:18:36;;;;;;;1.73;0.90;;;26.80;33.90;;;;;;4993543;28;20041;-63
2023/03/31 09:21:11;;;;;;;1.67;0.88;;;27.30;33.20;;;;;;4991275;28;20022;-63
2023/03/31 09:23:56;;;;;;;3.50;1.15;;;27.50;32.90;;;;;;4992004;28;20031;-61
2023/03/31 09:26:36;;;;;;;2.47;0.90;;;26.80;32.20;;;;;;4991525;28;20038;-62
2023/03/31 09:29:09;;;;;;;2.97;2.38;;;26.50;34.90;;;;;;4973686;28;20090;-61
2023/03/31 09:31:36;;;;;;;3.47;2.42;;;26.70;32.70;;;;;;4973826;28;20031;-62
2023/03/31 09:34:14;;;;;;;4.20;1.85;;;27.20;32.70;;;;;;4989732;28;20504;-65
2023/03/31 09:36:40;;;;;;;2.08;1.23;;;27.70;32.60;;;;;;4992718;28;20033;-62
2023/03/31 09:39:11;;;;;;;1.48;1.00;;;28.00;33.30;;;;;;4981504;28;20058;-60
2023/03/31 09:41:40;;;;;;;1.58;1.10;;;27.80;32.90;;;;;;4985352;28;20337;-66
2023/03/31 09:44:23;;;;;;;2.28;0.80;;;28.10;31.90;;;;;;4986885;28;20085;-60
2023/03/31 09:46:50;;;;;;;0.95;0.63;;;28.20;32.60;;;;;;4979408;28;20039;-61
2023/03/31 09:49:19;;;;;;;1.20;0.80;;;28.20;33.70;;;;;;4991935;28;20034;-67
2023/03/31 09:51:53;;;;;;;1.05;0.60;;;27.90;33.30;;;;;;4990743;28;20066;-64
2023/03/31 09:54:28;;;;;;;1.52;0.73;;;27.80;31.80;;;;;;4990159;28;20058;-61
2023/03/31 09:56:55;;;;;;;1.08;0.77;;;27.80;33.00;;;;;;4989527;28;20037;-63
2023/03/31 09:59:22;;;;;;;0.60;0.50;;;27.70;31.30;;;;;;4986673;28;20069;-61
2023/03/31 10:01:55;;;;;;;1.08;0.85;;;27.70;31.40;;;;;;4986690;28;20137;-64
2023/03/31 10:04:27;;;;;;;1.40;1.10;;;27.70;31.40;;;;;;4990838;28;20429;-63
2023/03/31 10:06:56;;;;;;;0.93;0.70;;;28.00;31.30;;;;;;4991515;28;20077;-60
2023/03/31 10:09:29;;;;;;;1.67;0.70;;;28.20;31.20;;;;;;4991790;28;20030;-60
2023/03/31 10:12:06;;;;;;;1.95;0.77;;;28.10;32.60;;;;;;4987900;28;20045;-64
2023/03/31 10:14:40;;;;;;;0.95;0.50;;;27.60;32.20;;;;;;4984235;28;20026;-61
2023/03/31 10:17:06;;;;;;;2.42;0.70;;;27.60;34.70;;;;;;4978586;28;20031;-59
2023/03/31 10:19:45;;;;;;;1.83;0.60;;;27.80;35.80;;;;;;4981842;28;20393;-63
2023/03/31 10:22:21;;;;;;;1.02;0.70;;;28.10;31.20;;;;;;4992364;28;20034;-62
2023/03/31 10:24:48;;;;;;;1.10;0.70;;;28.40;30.50;;;;;;4990498;28;20030;-60
2023/03/31 10:27:25;;;;;;;1.20;0.80;;;28.60;33.50;;;;;;4986271;28;20026;-62
2023/03/31 10:29:59;;;;;;;1.83;1.10;;;28.80;30.70;;;;;;4988447;28;20692;-63
2023/03/31 10:32:28;;;;;;;1.20;0.70;;;28.80;29.80;;;;;;4989670;28;20044;-59
2023/03/31 10:35:27;;;;;;;0.98;0.60;;;28.30;30.70;;;;;;4990083;28;20034;-61
2023/03/31 10:37:58;;;;;;;1.60;0.80;;;28.40;32.90;;;;;;4981662;28;20061;-61
2023/03/31 10:40:27;;;;;;;1.17;0.60;;;28.60;32.00;;;;;;4990775;28;20134;-60
2023/03/31 10:43:02;;;;;;;1.67;0.63;;;28.60;32.40;;;;;;4991932;28;20018;-61
2023/03/31 10:45:35;;;;;;;1.10;0.70;;;29.10;30.00;;;;;;4991983;28;20031;-61
2023/03/31 10:48:00;;;;;;;1.08;0.57;;;29.00;30.00;;;;;;4992807;28;20049;-60
2023/03/31 10:53:50;;;;;;;0.95;0.70;;;28.70;29.60;;;;;;4992693;28;20032;-64
2023/03/31 10:56:35;;;;;;;1.65;0.82;;;28.50;30.50;;;;;;4991302;28;20440;-61
2023/03/31 11:06:05;;;;;;;1.35;0.70;;;29.80;32.00;;;;;;4992159;28;20062;-61
2023/03/31 11:09:04;;;;;;;0.75;0.68;;;29.30;31.20;;;;;;4996358;28;20524;-63
2023/03/31 11:11:51;;;;;;;0.88;0.70;;;29.30;29.50;;;;;;4993737;28;20038;-64
2023/03/31 11:14:47;;;;;;;1.30;0.70;;;29.60;30.00;;;;;;4996154;28;20039;-64
2023/03/31 11:17:50;;;;;;;0.63;0.60;;;29.80;28.60;;;;;;4997128;28;20027;-63
2023/03/31 11:20:36;;;;;;;0.60;0.50;;;29.90;29.20;;;;;;4990927;28;20054;-64
2023/03/31 11:23:20;;;;;;;0.82;0.45;;;29.90;31.40;;;;;;4973045;28;20035;-64
2023/03/31 11:26:06;;;;;;;1.10;0.85;;;29.70;30.10;;;;;;4972406;28;20374;-63
2023/03/31 11:28:40;;;;;;;2.78;0.88;;;29.60;29.70;;;;;;4989924;28;20034;-66
2023/03/31 11:31:15;;;;;;;1.25;0.88;;;29.30;30.40;;;;;;4975474;28;20034;-62
2023/03/31 11:34:14;;;;;;;0.80;0.60;;;29.20;30.00;;;;;;4973375;28;20085;-64
2023/03/31 11:36:52;;;;;;;0.88;0.60;;;29.90;29.40;;;;;;4950563;28;20039;-61
2023/03/31 11:39:26;;;;;;;2.25;0.95;;;30.10;31.30;;;;;;4971353;28;20027;-63
2023/03/31 11:41:57;;;;;;;3.60;0.75;;;29.30;30.00;;;;;;4984374;28;20042;-62
2023/03/31 11:44:37;;;;;;;1.08;0.80;;;29.40;28.80;;;;;;4990938;28;20499;-61
2023/03/31 11:47:10;;;;;;;1.67;1.13;;;29.50;30.70;;;;;;4989469;28;20378;-61
2023/03/31 11:49:44;;;;;;;2.33;1.08;;;29.40;29.90;;;;;;4982692;28;20037;-64
2023/03/31 11:52:21;;;;;;;1.88;0.80;;;29.10;30.50;;;;;;4974133;28;20040;-72
2023/03/31 11:55:02;;;;;;;1.88;0.77;;;28.80;29.70;;;;;;4973780;28;20544;-66
2023/03/31 11:57:40;;;;;;;1.38;0.90;;;28.50;28.90;;;;;;4972851;28;20029;-64
2023/03/31 12:00:18;;;;;;;2.13;0.90;;;29.10;29.70;;;;;;4972778;28;20054;-64
2023/03/31 12:02:57;;;;;;;1.27;0.80;;;29.60;29.50;;;;;;4981261;28;20062;-63
2023/03/31 12:05:25;;;;;;;1.77;0.70;;;29.70;28.70;;;;;;4991026;28;20046;-65
2023/03/31 12:08:04;;;;;;;1.08;0.90;;;29.50;28.40;;;;;;4987171;28;20571;-63
2023/03/31 12:10:54;;;;;;;1.70;0.98;;;29.70;29.90;;;;;;4995434;28;20385;-63
2023/03/31 12:13:35;;;;;;;1.40;0.80;;;29.60;30.10;;;;;;4994344;28;20026;-61
2023/03/31 12:16:22;;;;;;;1.67;0.77;;;29.10;28.80;;;;;;4990701;28;20116;-63
2023/03/31 12:19:11;;;;;;;1.80;0.70;;;29.40;29.10;;;;;;4990950;28;20042;-61
2023/03/31 12:21:40;;;;;;;0.90;0.80;;;29.40;29.00;;;;;;4993872;28;20381;-61
2023/03/31 12:24:09;;;;;;;1.08;0.80;;;29.60;28.50;;;;;;4990710;28;20121;-62
2023/03/31 12:26:56;;;;;;;1.35;0.73;;;29.80;28.30;;;;;;4990567;28;20101;-62
2023/03/31 12:29:31;;;;;;;0.77;0.70;;;29.80;29.10;;;;;;4988893;28;20385;-60
2023/03/31 12:32:02;;;;;;;1.35;0.95;;;29.60;30.30;;;;;;4989965;28;20061;-62
2023/03/31 12:34:29;;;;;;;1.65;1.08;;;29.40;31.10;;;;;;4990380;28;20084;-62
2023/03/31 12:37:28;;;;;;;1.17;0.73;;;29.60;29.40;;;;;;4989663;28;20034;-62
2023/03/31 12:39:56;;;;;;;1.08;0.88;;;29.90;29.60;;;;;;4991515;28;20073;-61
2023/03/31 12:42:34;;;;;;;1.48;0.80;;;29.80;28.20;;;;;;4992673;28;20391;-62
2023/03/31 12:45:09;;;;;;;0.88;0.88;;;30.00;27.90;;;;;;4992662;28;20029;-61
2023/03/31 12:47:37;;;;;;;0.80;0.70;;;30.10;27.70;;;;;;4993688;28;20030;-61
2023/03/31 12:50:17;;;;;;;1.80;0.90;;;30.60;27.90;;;;;;4993666;28;20018;-61
2023/03/31 12:52:58;;;;;;;1.98;0.85;;;30.70;27.30;;;;;;4994784;28;20029;-61
2023/03/31 12:55:37;;;;;;;0.90;0.60;;;30.60;27.20;;;;;;4994675;28;20019;-61
2023/03/31 12:58:21;;;;;;;1.20;0.80;;;30.40;28.00;;;;;;4992733;28;20026;-61
2023/03/31 13:01:10;;;;;;;2.05;0.95;;;30.20;28.10;;;;;;4993623;28;20026;-61
2023/03/31 13:03:42;;;;;;;3.45;1.30;;;30.00;30.70;;;;;;4993392;28;20121;-61
2023/03/31 13:06:31;;;;;;;2.13;1.17;;;29.10;28.20;;;;;;4994305;28;20050;-62
2023/03/31 13:09:04;;;;;;;1.75;1.23;;;28.90;27.90;;;;;;4994538;28;20497;-60
2023/03/31 13:11:36;;;;;;;3.65;2.25;;;29.20;27.60;;;;;;4994469;28;20121;-61
2023/03/31 13:14:22;;;;;;;1.63;1.38;;;28.60;27.80;;;;;;4994342;28;20061;-61
2023/03/31 13:16:50;;;;;;;2.35;1.40;;;28.40;28.20;;;;;;4994444;28;20481;-60
2023/03/31 13:19:35;;;;;;;1.98;1.13;;;28.60;29.10;;;;;;4994305;28;20029;-61
2023/03/31 13:22:04;;;;;;;2.30;1.63;;;29.00;28.00;;;;;;4994351;28;20030;-61